Snoqualmie River: South Fork station

back to: Snoqualmie river
South Fork station Summary - (NOAA Hydrograph: GARW1)
Latest reading:
Fri11/16 02:15 pm 10.72 ft 210 cfs (-12/hr)
Past 24hr max:
Fri11/16 10:00 am 10.73 ft 213 cfs
Forecasted crests: (published Fri 11/16/18 03:04 pm)
Wed11/21 04:00 pm 10.39 ft 128 cfs
Fri11/23 04:00 am 10.66 ft 193 cfs
Sun11/25 04:00 am 10.84 ft 245 cfs

South Fork station Details

Latest Readings

Last 100 Readings:
Fri11/16 02:15 pm 10.72 ft 210 cfs
Fri11/16 02:00 pm 10.73 ft 213 cfs
Fri11/16 01:45 pm 10.73 ft 213 cfs
Fri11/16 01:30 pm 10.73 ft 213 cfs
Fri11/16 01:15 pm 10.73 ft 213 cfs
Fri11/16 01:00 pm 10.72 ft 210 cfs
Fri11/16 12:45 pm 10.73 ft 213 cfs
Fri11/16 12:30 pm 10.73 ft 213 cfs
Fri11/16 12:15 pm 10.73 ft 213 cfs
Fri11/16 12:00 pm 10.73 ft 213 cfs
Fri11/16 11:45 am 10.73 ft 213 cfs
Fri11/16 11:30 am 10.73 ft 213 cfs
Fri11/16 11:15 am 10.73 ft 213 cfs
Fri11/16 11:00 am 10.73 ft 213 cfs
Fri11/16 10:45 am 10.73 ft 213 cfs
Fri11/16 10:30 am 10.72 ft 210 cfs
Fri11/16 10:15 am 10.72 ft 210 cfs
Fri11/16 10:00 am 10.73 ft 213 cfs
Fri11/16 09:45 am 10.71 ft 207 cfs
Fri11/16 09:30 am 10.72 ft 210 cfs
Fri11/16 09:15 am 10.71 ft 207 cfs
Fri11/16 09:00 am 10.71 ft 207 cfs
Fri11/16 08:45 am 10.71 ft 207 cfs
Fri11/16 08:30 am 10.7 ft 204 cfs
Fri11/16 08:15 am 10.7 ft 204 cfs
Fri11/16 08:00 am 10.69 ft 202 cfs
Fri11/16 07:45 am 10.69 ft 202 cfs
Fri11/16 07:30 am 10.68 ft 199 cfs
Fri11/16 07:15 am 10.68 ft 199 cfs
Fri11/16 07:00 am 10.68 ft 199 cfs
Fri11/16 06:45 am 10.66 ft 193 cfs
Fri11/16 06:30 am 10.67 ft 196 cfs
Fri11/16 06:15 am 10.66 ft 193 cfs
Fri11/16 06:00 am 10.65 ft 191 cfs
Fri11/16 05:45 am 10.64 ft 188 cfs
Fri11/16 05:30 am 10.64 ft 188 cfs
Fri11/16 05:15 am 10.63 ft 185 cfs
Fri11/16 05:00 am 10.63 ft 185 cfs
Fri11/16 04:45 am 10.62 ft 183 cfs
Fri11/16 04:30 am 10.61 ft 180 cfs
Fri11/16 04:15 am 10.61 ft 180 cfs
Fri11/16 04:00 am 10.59 ft 175 cfs
Fri11/16 03:45 am 10.59 ft 175 cfs
Fri11/16 03:30 am 10.58 ft 172 cfs
Fri11/16 03:15 am 10.57 ft 170 cfs
Fri11/16 03:00 am 10.56 ft 167 cfs
Fri11/16 02:45 am 10.56 ft 167 cfs
Fri11/16 02:30 am 10.56 ft 167 cfs
Fri11/16 02:15 am 10.54 ft 162 cfs
Fri11/16 02:00 am 10.54 ft 162 cfs
Fri11/16 01:45 am 10.54 ft 162 cfs
Fri11/16 01:30 am 10.53 ft 160 cfs
Fri11/16 01:15 am 10.53 ft 160 cfs
Fri11/16 01:00 am 10.52 ft 157 cfs
Fri11/16 12:45 am 10.52 ft 157 cfs
Fri11/16 12:30 am 10.52 ft 157 cfs
Fri11/16 12:15 am 10.52 ft 157 cfs
Fri11/16 12:00 am 10.52 ft 157 cfs
Thu11/15 11:45 pm 10.52 ft 157 cfs
Thu11/15 11:30 pm 10.52 ft 157 cfs
Thu11/15 11:15 pm 10.52 ft 157 cfs
Thu11/15 11:00 pm 10.52 ft 157 cfs
Thu11/15 10:45 pm 10.52 ft 157 cfs
Thu11/15 10:30 pm 10.53 ft 160 cfs
Thu11/15 10:15 pm 10.52 ft 157 cfs
Thu11/15 10:00 pm 10.52 ft 157 cfs
Thu11/15 09:45 pm 10.52 ft 157 cfs
Thu11/15 09:30 pm 10.53 ft 160 cfs
Thu11/15 09:15 pm 10.53 ft 160 cfs
Thu11/15 09:00 pm 10.53 ft 160 cfs
Thu11/15 08:45 pm 10.53 ft 160 cfs
Thu11/15 08:30 pm 10.53 ft 160 cfs
Thu11/15 08:15 pm 10.53 ft 160 cfs
Thu11/15 08:00 pm 10.53 ft 160 cfs
Thu11/15 07:45 pm 10.53 ft 160 cfs
Thu11/15 07:30 pm 10.53 ft 160 cfs
Thu11/15 07:15 pm 10.53 ft 160 cfs
Thu11/15 07:00 pm 10.54 ft 162 cfs
Thu11/15 06:45 pm 10.53 ft 160 cfs
Thu11/15 06:30 pm 10.54 ft 162 cfs
Thu11/15 06:15 pm 10.54 ft 162 cfs
Thu11/15 06:00 pm 10.54 ft 162 cfs
Thu11/15 05:45 pm 10.54 ft 162 cfs
Thu11/15 05:30 pm 10.54 ft 162 cfs
Thu11/15 05:15 pm 10.54 ft 162 cfs
Thu11/15 05:00 pm 10.54 ft 162 cfs
Thu11/15 04:45 pm 10.54 ft 162 cfs
Thu11/15 04:30 pm 10.55 ft 165 cfs
Thu11/15 04:15 pm 10.55 ft 165 cfs
Thu11/15 04:00 pm 10.54 ft 162 cfs
Thu11/15 03:45 pm 10.55 ft 165 cfs
Thu11/15 03:30 pm 10.55 ft 165 cfs
Thu11/15 03:15 pm 10.55 ft 165 cfs
Thu11/15 03:00 pm 10.55 ft 165 cfs
Thu11/15 02:45 pm 10.55 ft 165 cfs
Thu11/15 02:30 pm 10.55 ft 165 cfs
Thu11/15 02:15 pm 10.55 ft 165 cfs
Thu11/15 02:00 pm 10.55 ft 165 cfs
Thu11/15 01:45 pm 10.55 ft 165 cfs
Thu11/15 01:30 pm 10.56 ft 167 cfs

Latest Forecasts

Currently Forecasted Readings:
Fri11/16 04:00 pm 10.7 ft 205 cfs
Fri11/16 10:00 pm 10.67 ft 195 cfs
Sat11/17 04:00 am 10.64 ft 187 cfs
Sat11/17 10:00 am 10.61 ft 181 cfs
Sat11/17 04:00 pm 10.59 ft 174 cfs
Sat11/17 10:00 pm 10.56 ft 168 cfs
Sun11/18 04:00 am 10.54 ft 163 cfs
Sun11/18 10:00 am 10.52 ft 158 cfs
Sun11/18 04:00 pm 10.5 ft 153 cfs
Sun11/18 10:00 pm 10.48 ft 149 cfs
Mon11/19 04:00 am 10.47 ft 145 cfs
Mon11/19 10:00 am 10.45 ft 141 cfs
Mon11/19 04:00 pm 10.44 ft 138 cfs
Mon11/19 10:00 pm 10.42 ft 134 cfs
Tue11/20 04:00 am 10.41 ft 131 cfs
Tue11/20 10:00 am 10.4 ft 129 cfs
Tue11/20 04:00 pm 10.38 ft 126 cfs
Tue11/20 10:00 pm 10.37 ft 124 cfs
Wed11/21 04:00 am 10.36 ft 121 cfs
Wed11/21 10:00 am 10.37 ft 122 cfs
Wed11/21 04:00 pm 10.39 ft 128 cfs
Wed11/21 10:00 pm 10.39 ft 128 cfs
Thu11/22 04:00 am 10.38 ft 126 cfs
Thu11/22 10:00 am 10.38 ft 124 cfs
Thu11/22 04:00 pm 10.48 ft 148 cfs
Thu11/22 10:00 pm 10.57 ft 170 cfs
Fri11/23 04:00 am 10.66 ft 193 cfs
Fri11/23 10:00 am 10.62 ft 181 cfs
Fri11/23 04:00 pm 10.67 ft 197 cfs
Fri11/23 10:00 pm 10.68 ft 200 cfs
Sat11/24 04:00 am 10.7 ft 205 cfs
Sat11/24 10:00 am 10.74 ft 217 cfs
Sat11/24 04:00 pm 10.76 ft 222 cfs
Sat11/24 10:00 pm 10.77 ft 225 cfs
Sun11/25 04:00 am 10.84 ft 245 cfs
Sun11/25 10:00 am 10.8 ft 233 cfs
Sun11/25 04:00 pm 10.79 ft 230 cfs
Sun11/25 10:00 pm 10.75 ft 218 cfs
Mon11/26 04:00 am 10.75 ft 220 cfs

Snoqualmie River flood gauge data supplied by the
National Weather Service Northwest River Forecast Center.

Sign up for Floodzilla alerts.